sensor_id;sensor_type;location;lat;lon;timestamp;pressure;altitude;pressure_sealevel;temperature;humidity
13068;BME280;6600;51.362;6.686;2023-06-14T00:00:30;100915.81;;;21.03;53.99
13068;BME280;6600;51.362;6.686;2023-06-14T00:02:56;100922.38;;;21.02;54.19
13068;BME280;6600;51.362;6.686;2023-06-14T00:05:22;100919.97;;;20.96;54.31
13068;BME280;6600;51.362;6.686;2023-06-14T00:07:48;100920.22;;;20.94;54.03
13068;BME280;6600;51.362;6.686;2023-06-14T00:10:14;100920.78;;;20.91;54.31
13068;BME280;6600;51.362;6.686;2023-06-14T00:12:40;100921.59;;;20.92;54.41
13068;BME280;6600;51.362;6.686;2023-06-14T00:15:07;100917.81;;;20.83;54.98
13068;BME280;6600;51.362;6.686;2023-06-14T00:17:35;100930.09;;;20.80;55.03
13068;BME280;6600;51.362;6.686;2023-06-14T00:20:03;100927.66;;;20.79;55.35
13068;BME280;6600;51.362;6.686;2023-06-14T00:22:30;100931.47;;;20.78;55.49
13068;BME280;6600;51.362;6.686;2023-06-14T00:24:58;100929.81;;;20.77;55.84
13068;BME280;6600;51.362;6.686;2023-06-14T00:27:23;100933.13;;;20.69;55.66
13068;BME280;6600;51.362;6.686;2023-06-14T00:29:48;100936.38;;;20.71;55.83
13068;BME280;6600;51.362;6.686;2023-06-14T00:32:14;100945.03;;;20.83;54.99
13068;BME280;6600;51.362;6.686;2023-06-14T00:34:39;100942.09;;;20.74;55.59
13068;BME280;6600;51.362;6.686;2023-06-14T00:37:04;100947.53;;;20.69;56.17
13068;BME280;6600;51.362;6.686;2023-06-14T00:39:30;100950.00;;;20.65;56.62
13068;BME280;6600;51.362;6.686;2023-06-14T00:41:55;100945.63;;;20.70;56.16
13068;BME280;6600;51.362;6.686;2023-06-14T00:44:20;100947.84;;;20.62;56.39
13068;BME280;6600;51.362;6.686;2023-06-14T00:46:47;100960.63;;;20.62;56.62
13068;BME280;6600;51.362;6.686;2023-06-14T00:49:14;100953.84;;;20.64;55.92
13068;BME280;6600;51.362;6.686;2023-06-14T00:51:41;100951.66;;;20.56;56.57
13068;BME280;6600;51.362;6.686;2023-06-14T00:54:07;100968.53;;;20.48;57.40
13068;BME280;6600;51.362;6.686;2023-06-14T00:56:32;100947.34;;;20.35;57.63
13068;BME280;6600;51.362;6.686;2023-06-14T00:58:58;100962.84;;;20.35;58.15
13068;BME280;6600;51.362;6.686;2023-06-14T01:01:24;100963.69;;;20.30;57.73
13068;BME280;6600;51.362;6.686;2023-06-14T01:03:50;100966.38;;;20.15;58.52
13068;BME280;6600;51.362;6.686;2023-06-14T01:06:41;100961.50;;;20.02;59.40
13068;BME280;6600;51.362;6.686;2023-06-14T01:12:17;100960.94;;;19.95;59.30
13068;BME280;6600;51.362;6.686;2023-06-14T01:14:45;100964.22;;;19.92;59.54
13068;BME280;6600;51.362;6.686;2023-06-14T01:17:13;100963.66;;;19.90;58.27
13068;BME280;6600;51.362;6.686;2023-06-14T01:19:42;100961.75;;;19.95;58.86
13068;BME280;6600;51.362;6.686;2023-06-14T01:22:08;100953.03;;;19.93;59.84
13068;BME280;6600;51.362;6.686;2023-06-14T01:24:33;100959.84;;;19.91;60.16
13068;BME280;6600;51.362;6.686;2023-06-14T01:27:00;100967.19;;;19.85;60.50
13068;BME280;6600;51.362;6.686;2023-06-14T01:29:27;100966.38;;;19.85;58.79
13068;BME280;6600;51.362;6.686;2023-06-14T01:31:58;100955.50;;;19.85;59.91
13068;BME280;6600;51.362;6.686;2023-06-14T01:34:25;100959.81;;;19.76;60.81
13068;BME280;6600;51.362;6.686;2023-06-14T01:36:53;100955.50;;;19.75;59.78
13068;BME280;6600;51.362;6.686;2023-06-14T01:39:22;100959.81;;;19.76;58.53
13068;BME280;6600;51.362;6.686;2023-06-14T01:41:49;100958.78;;;19.82;58.18
13068;BME280;6600;51.362;6.686;2023-06-14T01:44:19;100963.63;;;19.80;58.80
13068;BME280;6600;51.362;6.686;2023-06-14T01:46:46;100951.13;;;19.74;57.32
13068;BME280;6600;51.362;6.686;2023-06-14T01:49:13;100961.22;;;19.78;56.82
13068;BME280;6600;51.362;6.686;2023-06-14T01:51:39;100962.03;;;19.99;55.98
13068;BME280;6600;51.362;6.686;2023-06-14T01:54:04;100957.38;;;19.89;58.19
13068;BME280;6600;51.362;6.686;2023-06-14T01:56:30;100965.00;;;19.97;57.04
13068;BME280;6600;51.362;6.686;2023-06-14T01:58:56;100956.59;;;19.94;56.53
13068;BME280;6600;51.362;6.686;2023-06-14T02:01:21;100959.31;;;19.94;57.44
13068;BME280;6600;51.362;6.686;2023-06-14T02:03:47;100959.31;;;19.99;56.48
13068;BME280;6600;51.362;6.686;2023-06-14T02:06:14;100963.13;;;19.98;55.81
13068;BME280;6600;51.362;6.686;2023-06-14T02:08:41;100965.28;;;19.91;55.78
13068;BME280;6600;51.362;6.686;2023-06-14T02:11:06;100957.41;;;19.84;57.12
13068;BME280;6600;51.362;6.686;2023-06-14T02:13:32;100954.66;;;19.79;57.98
13068;BME280;6600;51.362;6.686;2023-06-14T02:15:57;100964.75;;;19.69;58.34
13068;BME280;6600;51.362;6.686;2023-06-14T02:18:24;100969.03;;;19.49;60.03
13068;BME280;6600;51.362;6.686;2023-06-14T02:20:50;100964.69;;;19.43;60.05
13068;BME280;6600;51.362;6.686;2023-06-14T02:23:15;100961.03;;;19.28;61.27
13068;BME280;6600;51.362;6.686;2023-06-14T02:25:41;100960.72;;;19.14;61.46
13068;BME280;6600;51.362;6.686;2023-06-14T02:28:06;100958.84;;;19.09;61.95
13068;BME280;6600;51.362;6.686;2023-06-14T02:30:31;100967.75;;;19.05;62.71
13068;BME280;6600;51.362;6.686;2023-06-14T02:32:59;100967.13;;;18.88;62.71
13068;BME280;6600;51.362;6.686;2023-06-14T02:35:25;100974.16;;;18.79;62.17
13068;BME280;6600;51.362;6.686;2023-06-14T02:37:52;100968.78;;;18.89;60.47
13068;BME280;6600;51.362;6.686;2023-06-14T02:40:18;100967.75;;;19.05;58.69
13068;BME280;6600;51.362;6.686;2023-06-14T02:42:44;100971.84;;;19.07;60.08
13068;BME280;6600;51.362;6.686;2023-06-14T02:45:09;100972.69;;;19.18;58.40
13068;BME280;6600;51.362;6.686;2023-06-14T02:47:35;100972.16;;;19.21;57.99
13068;BME280;6600;51.362;6.686;2023-06-14T02:50:00;100971.66;;;19.29;59.32
13068;BME280;6600;51.362;6.686;2023-06-14T02:52:26;100976.59;;;19.37;59.03
13068;BME280;6600;51.362;6.686;2023-06-14T02:54:51;100980.34;;;19.26;57.99
13068;BME280;6600;51.362;6.686;2023-06-14T02:57:17;100982.53;;;19.29;57.15
13068;BME280;6600;51.362;6.686;2023-06-14T02:59:42;100977.09;;;19.34;57.04
13068;BME280;6600;51.362;6.686;2023-06-14T03:02:08;100984.22;;;19.45;57.80
13068;BME280;6600;51.362;6.686;2023-06-14T03:04:33;100988.56;;;19.41;56.91
13068;BME280;6600;51.362;6.686;2023-06-14T03:07:02;100990.16;;;19.32;56.97
13068;BME280;6600;51.362;6.686;2023-06-14T03:09:35;100993.94;;;19.31;57.05
13068;BME280;6600;51.362;6.686;2023-06-14T03:12:01;101001.56;;;19.34;56.82
13068;BME280;6600;51.362;6.686;2023-06-14T03:14:28;101000.72;;;19.29;56.66
13068;BME280;6600;51.362;6.686;2023-06-14T03:16:54;101004.56;;;19.33;57.13
13068;BME280;6600;51.362;6.686;2023-06-14T03:19:24;100999.34;;;19.21;56.91
13068;BME280;6600;51.362;6.686;2023-06-14T03:21:51;101011.56;;;19.18;57.10
13068;BME280;6600;51.362;6.686;2023-06-14T03:24:17;101010.72;;;19.18;57.29
13068;BME280;6600;51.362;6.686;2023-06-14T03:26:42;101007.78;;;19.25;56.83
13068;BME280;6600;51.362;6.686;2023-06-14T03:29:08;101002.09;;;19.26;57.20
13068;BME280;6600;51.362;6.686;2023-06-14T03:31:34;101013.75;;;19.22;58.50
13068;BME280;6600;51.362;6.686;2023-06-14T03:34:00;101007.97;;;19.03;59.50
13068;BME280;6600;51.362;6.686;2023-06-14T03:36:26;101007.13;;;19.02;60.08
13068;BME280;6600;51.362;6.686;2023-06-14T03:38:51;101019.03;;;18.91;61.09
13068;BME280;6600;51.362;6.686;2023-06-14T03:41:16;101015.97;;;18.78;62.39
13068;BME280;6600;51.362;6.686;2023-06-14T03:43:42;101012.34;;;18.67;62.86
13068;BME280;6600;51.362;6.686;2023-06-14T03:46:07;101012.00;;;18.58;62.66
13068;BME280;6600;51.362;6.686;2023-06-14T03:48:32;101015.16;;;18.45;63.36
13068;BME280;6600;51.362;6.686;2023-06-14T03:50:58;101018.38;;;18.42;63.29
13068;BME280;6600;51.362;6.686;2023-06-14T03:53:23;101027.50;;;18.31;63.79
13068;BME280;6600;51.362;6.686;2023-06-14T03:55:49;101030.81;;;18.33;63.88
13068;BME280;6600;51.362;6.686;2023-06-14T03:58:17;101026.44;;;18.27;63.61
13068;BME280;6600;51.362;6.686;2023-06-14T04:00:43;101029.41;;;18.31;63.94
13068;BME280;6600;51.362;6.686;2023-06-14T04:03:08;101030.50;;;18.30;63.93
13068;BME280;6600;51.362;6.686;2023-06-14T04:05:33;101035.19;;;18.39;63.93
13068;BME280;6600;51.362;6.686;2023-06-14T04:07:59;101036.84;;;18.40;63.84
13068;BME280;6600;51.362;6.686;2023-06-14T04:10:25;101034.66;;;18.42;63.74
13068;BME280;6600;51.362;6.686;2023-06-14T04:12:51;101039.03;;;18.48;64.17
13068;BME280;6600;51.362;6.686;2023-06-14T04:15:17;101041.84;;;18.53;63.52
13068;BME280;6600;51.362;6.686;2023-06-14T04:17:42;101043.50;;;18.54;63.32
13068;BME280;6600;51.362;6.686;2023-06-14T04:20:07;101058.72;;;18.60;64.47
13068;BME280;6600;51.362;6.686;2023-06-14T04:22:35;101062.28;;;18.66;64.05
13068;BME280;6600;51.362;6.686;2023-06-14T04:25:02;101053.31;;;18.65;63.90
13068;BME280;6600;51.362;6.686;2023-06-14T04:27:27;101058.50;;;18.67;64.16
13068;BME280;6600;51.362;6.686;2023-06-14T04:29:56;101064.22;;;18.71;63.33
13068;BME280;6600;51.362;6.686;2023-06-14T04:32:28;101058.81;;;18.71;62.59
13068;BME280;6600;51.362;6.686;2023-06-14T04:34:58;101061.00;;;18.74;61.58
13068;BME280;6600;51.362;6.686;2023-06-14T04:37:24;101069.44;;;18.77;62.09
13068;BME280;6600;51.362;6.686;2023-06-14T04:39:54;101065.78;;;18.98;61.37
13068;BME280;6600;51.362;6.686;2023-06-14T04:42:21;101066.13;;;19.12;59.71
13068;BME280;6600;51.362;6.686;2023-06-14T04:44:51;101065.94;;;19.24;59.87
13068;BME280;6600;51.362;6.686;2023-06-14T04:47:17;101074.72;;;19.41;57.66
13068;BME280;6600;51.362;6.686;2023-06-14T04:49:43;101081.66;;;19.69;57.00
13068;BME280;6600;51.362;6.686;2023-06-14T04:52:10;101081.19;;;20.02;55.79
13068;BME280;6600;51.362;6.686;2023-06-14T04:54:39;101082.31;;;20.31;55.44
13068;BME280;6600;51.362;6.686;2023-06-14T04:57:08;101085.59;;;20.58;54.31
13068;BME280;6600;51.362;6.686;2023-06-14T04:59:34;101078.78;;;20.81;53.71
13068;BME280;6600;51.362;6.686;2023-06-14T05:02:01;101091.03;;;20.94;53.35
13068;BME280;6600;51.362;6.686;2023-06-14T05:04:26;101087.19;;;21.00;53.67
13068;BME280;6600;51.362;6.686;2023-06-14T05:06:53;101087.19;;;21.00;53.04
13068;BME280;6600;51.362;6.686;2023-06-14T05:09:19;101094.28;;;21.01;52.71
13068;BME280;6600;51.362;6.686;2023-06-14T05:11:45;101089.94;;;21.15;53.06
13068;BME280;6600;51.362;6.686;2023-06-14T05:14:11;101098.63;;;21.27;52.47
13068;BME280;6600;51.362;6.686;2023-06-14T05:16:37;101108.41;;;21.33;52.61
13068;BME280;6600;51.362;6.686;2023-06-14T05:19:03;101107.03;;;21.41;52.76
13068;BME280;6600;51.362;6.686;2023-06-14T05:21:30;101105.84;;;21.62;52.83
13068;BME280;6600;51.362;6.686;2023-06-14T05:23:55;101109.28;;;21.88;52.32
13068;BME280;6600;51.362;6.686;2023-06-14T05:26:21;101111.34;;;22.11;51.03
13068;BME280;6600;51.362;6.686;2023-06-14T05:28:48;101105.63;;;22.12;51.41
13068;BME280;6600;51.362;6.686;2023-06-14T05:31:15;101109.09;;;22.23;50.64
13068;BME280;6600;51.362;6.686;2023-06-14T05:33:40;101113.94;;;22.31;51.12
13068;BME280;6600;51.362;6.686;2023-06-14T05:36:05;101118.31;;;22.32;51.10
13068;BME280;6600;51.362;6.686;2023-06-14T05:38:31;101112.28;;;22.35;50.32
13068;BME280;6600;51.362;6.686;2023-06-14T05:40:56;101112.19;;;22.50;52.02
13068;BME280;6600;51.362;6.686;2023-06-14T05:43:22;101116.00;;;22.49;50.52
13068;BME280;6600;51.362;6.686;2023-06-14T05:45:47;101119.34;;;22.41;50.63
13068;BME280;6600;51.362;6.686;2023-06-14T05:48:13;101123.59;;;22.57;50.02
13068;BME280;6600;51.362;6.686;2023-06-14T05:50:38;101125.59;;;22.86;49.56
13068;BME280;6600;51.362;6.686;2023-06-14T05:53:03;101123.72;;;22.81;49.09
13068;BME280;6600;51.362;6.686;2023-06-14T05:55:29;101115.78;;;22.80;49.57
13068;BME280;6600;51.362;6.686;2023-06-14T05:57:54;101126.84;;;22.59;49.66
13068;BME280;6600;51.362;6.686;2023-06-14T06:00:20;101126.94;;;22.83;50.15
13068;BME280;6600;51.362;6.686;2023-06-14T06:02:45;101129.91;;;22.92;49.64
13068;BME280;6600;51.362;6.686;2023-06-14T06:05:13;101131.03;;;23.14;49.49
13068;BME280;6600;51.362;6.686;2023-06-14T06:07:39;101130.75;;;23.16;49.42
13068;BME280;6600;51.362;6.686;2023-06-14T06:10:09;101132.72;;;23.34;48.57
13068;BME280;6600;51.362;6.686;2023-06-14T06:12:35;101133.06;;;23.28;48.47
13068;BME280;6600;51.362;6.686;2023-06-14T06:15:00;101127.91;;;23.26;48.25
13068;BME280;6600;51.362;6.686;2023-06-14T06:17:26;101129.94;;;23.44;49.21
13068;BME280;6600;51.362;6.686;2023-06-14T06:19:51;101135.91;;;23.46;47.57
13068;BME280;6600;51.362;6.686;2023-06-14T06:22:17;101135.69;;;23.67;49.03
13068;BME280;6600;51.362;6.686;2023-06-14T06:24:43;101138.59;;;23.75;48.38
13068;BME280;6600;51.362;6.686;2023-06-14T06:27:08;101145.75;;;23.71;47.61
13068;BME280;6600;51.362;6.686;2023-06-14T06:29:34;101141.25;;;23.80;47.65
13068;BME280;6600;51.362;6.686;2023-06-14T06:32:00;101147.28;;;24.01;47.99
13068;BME280;6600;51.362;6.686;2023-06-14T06:34:25;101145.09;;;23.55;46.25
13068;BME280;6600;51.362;6.686;2023-06-14T06:36:51;101144.97;;;23.65;47.78
13068;BME280;6600;51.362;6.686;2023-06-14T06:39:16;101143.59;;;23.68;48.12
13068;BME280;6600;51.362;6.686;2023-06-14T06:41:41;101157.44;;;23.77;47.35
13068;BME280;6600;51.362;6.686;2023-06-14T06:44:07;101156.84;;;23.80;46.69
13068;BME280;6600;51.362;6.686;2023-06-14T06:46:38;101167.22;;;23.83;46.49
13068;BME280;6600;51.362;6.686;2023-06-14T06:49:09;101164.56;;;23.78;46.66
13068;BME280;6600;51.362;6.686;2023-06-14T06:51:36;101158.03;;;23.74;46.23
13068;BME280;6600;51.362;6.686;2023-06-14T06:54:02;101169.69;;;23.60;46.29
13068;BME280;6600;51.362;6.686;2023-06-14T06:56:28;101168.16;;;23.49;47.00
13068;BME280;6600;51.362;6.686;2023-06-14T06:58:53;101169.56;;;23.71;47.22
13068;BME280;6600;51.362;6.686;2023-06-14T07:01:18;101168.63;;;23.56;46.79
13068;BME280;6600;51.362;6.686;2023-06-14T07:03:45;101171.06;;;23.82;46.46
13068;BME280;6600;51.362;6.686;2023-06-14T07:06:10;101180.22;;;23.96;45.81
13068;BME280;6600;51.362;6.686;2023-06-14T07:08:36;101192.03;;;23.91;44.88
13068;BME280;6600;51.362;6.686;2023-06-14T07:11:04;101182.22;;;24.09;46.02
13068;BME280;6600;51.362;6.686;2023-06-14T07:13:43;101195.03;;;24.13;45.06
13068;BME280;6600;51.362;6.686;2023-06-14T07:16:29;101191.66;;;23.98;44.32
13068;BME280;6600;51.362;6.686;2023-06-14T07:18:55;101194.88;;;23.57;44.85
13068;BME280;6600;51.362;6.686;2023-06-14T07:21:20;101197.66;;;23.52;45.07
13068;BME280;6600;51.362;6.686;2023-06-14T07:24:06;101193.19;;;23.61;45.95
13068;BME280;6600;51.362;6.686;2023-06-14T07:26:33;101199.66;;;23.71;45.40
13068;BME280;6600;51.362;6.686;2023-06-14T07:28:58;101189.34;;;23.86;44.39
13068;BME280;6600;51.362;6.686;2023-06-14T07:31:24;101194.44;;;23.93;44.86
13068;BME280;6600;51.362;6.686;2023-06-14T07:33:49;101192.94;;;24.05;44.95
13068;BME280;6600;51.362;6.686;2023-06-14T07:36:15;101184.22;;;23.80;43.92
13068;BME280;6600;51.362;6.686;2023-06-14T07:38:40;101189.22;;;23.73;44.30
13068;BME280;6600;51.362;6.686;2023-06-14T07:41:06;101187.38;;;23.92;44.50
13068;BME280;6600;51.362;6.686;2023-06-14T07:43:31;101187.81;;;23.99;43.80
13068;BME280;6600;51.362;6.686;2023-06-14T07:45:57;101187.97;;;23.89;43.81
13068;BME280;6600;51.362;6.686;2023-06-14T07:48:22;101196.91;;;24.18;44.43
13068;BME280;6600;51.362;6.686;2023-06-14T07:50:48;101199.44;;;24.33;44.59
13068;BME280;6600;51.362;6.686;2023-06-14T07:53:13;101189.38;;;24.47;43.16
13068;BME280;6600;51.362;6.686;2023-06-14T07:55:38;101193.44;;;24.50;43.50
13068;BME280;6600;51.362;6.686;2023-06-14T07:58:07;101192.25;;;24.56;43.10
13068;BME280;6600;51.362;6.686;2023-06-14T08:00:32;101190.53;;;24.79;43.60
13068;BME280;6600;51.362;6.686;2023-06-14T08:02:58;101196.31;;;24.77;42.85
13068;BME280;6600;51.362;6.686;2023-06-14T08:05:25;101198.44;;;24.80;42.92
13068;BME280;6600;51.362;6.686;2023-06-14T08:07:51;101196.41;;;24.91;43.41
13068;BME280;6600;51.362;6.686;2023-06-14T08:10:16;101197.94;;;24.59;43.49
13068;BME280;6600;51.362;6.686;2023-06-14T08:12:42;101202.06;;;24.76;42.69
13068;BME280;6600;51.362;6.686;2023-06-14T08:15:13;101194.63;;;24.62;42.62
13068;BME280;6600;51.362;6.686;2023-06-14T08:17:48;101202.97;;;24.90;43.21
13068;BME280;6600;51.362;6.686;2023-06-14T08:20:13;101197.50;;;24.90;42.29
13068;BME280;6600;51.362;6.686;2023-06-14T08:22:42;101206.69;;;24.99;42.02
13068;BME280;6600;51.362;6.686;2023-06-14T08:25:08;101197.50;;;24.90;42.12
13068;BME280;6600;51.362;6.686;2023-06-14T08:27:34;101195.00;;;24.75;43.44
13068;BME280;6600;51.362;6.686;2023-06-14T08:29:59;101198.69;;;24.84;41.81
13068;BME280;6600;51.362;6.686;2023-06-14T08:32:24;101191.81;;;24.68;42.87
13068;BME280;6600;51.362;6.686;2023-06-14T08:34:50;101194.25;;;24.88;43.47
13068;BME280;6600;51.362;6.686;2023-06-14T08:37:15;101193.66;;;24.91;43.82
13068;BME280;6600;51.362;6.686;2023-06-14T08:39:41;101197.34;;;24.62;44.23
13068;BME280;6600;51.362;6.686;2023-06-14T08:42:07;101205.06;;;24.23;43.99
13068;BME280;6600;51.362;6.686;2023-06-14T08:44:34;101194.25;;;24.13;44.86
13068;BME280;6600;51.362;6.686;2023-06-14T08:47:00;101200.50;;;24.37;45.89
13068;BME280;6600;51.362;6.686;2023-06-14T08:49:25;101192.91;;;24.29;45.07
13068;BME280;6600;51.362;6.686;2023-06-14T08:51:58;101206.16;;;24.22;45.21
13068;BME280;6600;51.362;6.686;2023-06-14T08:54:28;101201.94;;;24.48;44.41
13068;BME280;6600;51.362;6.686;2023-06-14T08:56:57;101188.13;;;24.40;42.99
13068;BME280;6600;51.362;6.686;2023-06-14T08:59:26;101201.66;;;24.31;44.36
13068;BME280;6600;51.362;6.686;2023-06-14T09:01:52;101210.91;;;24.35;44.06
13068;BME280;6600;51.362;6.686;2023-06-14T09:04:23;101191.44;;;24.55;43.73
13068;BME280;6600;51.362;6.686;2023-06-14T09:06:55;101195.88;;;24.51;44.07
13068;BME280;6600;51.362;6.686;2023-06-14T09:09:21;101202.03;;;24.43;44.92
13068;BME280;6600;51.362;6.686;2023-06-14T09:11:49;101203.00;;;24.34;45.18
13068;BME280;6600;51.362;6.686;2023-06-14T09:14:14;101199.34;;;24.20;44.32
13068;BME280;6600;51.362;6.686;2023-06-14T09:16:40;101215.56;;;24.16;45.04
13068;BME280;6600;51.362;6.686;2023-06-14T09:19:05;101211.22;;;24.10;44.47
13068;BME280;6600;51.362;6.686;2023-06-14T09:21:33;101202.25;;;24.28;44.38
13068;BME280;6600;51.362;6.686;2023-06-14T09:24:01;101208.38;;;24.39;46.38
13068;BME280;6600;51.362;6.686;2023-06-14T09:26:27;101209.34;;;24.29;45.39
13068;BME280;6600;51.362;6.686;2023-06-14T09:28:53;101215.13;;;24.28;45.29
13068;BME280;6600;51.362;6.686;2023-06-14T09:31:20;101211.09;;;23.96;45.85
13068;BME280;6600;51.362;6.686;2023-06-14T09:33:50;101210.47;;;24.28;46.33
13068;BME280;6600;51.362;6.686;2023-06-14T09:36:23;101212.19;;;24.61;46.39
13068;BME280;6600;51.362;6.686;2023-06-14T09:39:01;101213.94;;;24.90;45.07
13068;BME280;6600;51.362;6.686;2023-06-14T09:41:38;101220.94;;;25.14;44.67
13068;BME280;6600;51.362;6.686;2023-06-14T09:44:08;101219.34;;;24.76;45.24
13068;BME280;6600;51.362;6.686;2023-06-14T09:46:35;101213.94;;;24.52;45.76
13068;BME280;6600;51.362;6.686;2023-06-14T09:49:01;101213.72;;;24.49;45.44
13068;BME280;6600;51.362;6.686;2023-06-14T09:51:27;101209.28;;;24.90;44.53
13068;BME280;6600;51.362;6.686;2023-06-14T09:53:58;101220.16;;;24.77;43.94
13068;BME280;6600;51.362;6.686;2023-06-14T09:56:35;101219.03;;;24.22;44.45
13068;BME280;6600;51.362;6.686;2023-06-14T09:59:04;101222.72;;;24.31;44.90
13068;BME280;6600;51.362;6.686;2023-06-14T10:01:31;101220.22;;;24.34;44.91
13068;BME280;6600;51.362;6.686;2023-06-14T10:04:03;101213.59;;;24.40;44.85
13068;BME280;6600;51.362;6.686;2023-06-14T10:06:30;101226.97;;;24.23;43.87
13068;BME280;6600;51.362;6.686;2023-06-14T10:08:59;101223.16;;;24.61;44.20
13068;BME280;6600;51.362;6.686;2023-06-14T10:11:26;101221.50;;;24.60;43.47
13068;BME280;6600;51.362;6.686;2023-06-14T10:13:58;101214.16;;;24.75;42.69
13068;BME280;6600;51.362;6.686;2023-06-14T10:19:14;101223.56;;;24.31;42.56
13068;BME280;6600;51.362;6.686;2023-06-14T10:24:43;101223.00;;;24.72;42.15
13068;BME280;6600;51.362;6.686;2023-06-14T10:27:09;101216.78;;;24.85;42.22
13068;BME280;6600;51.362;6.686;2023-06-14T10:32:17;101207.94;;;24.69;43.46
13068;BME280;6600;51.362;6.686;2023-06-14T10:34:44;101211.41;;;24.93;42.53
13068;BME280;6600;51.362;6.686;2023-06-14T10:37:13;101217.19;;;25.24;42.04
13068;BME280;6600;51.362;6.686;2023-06-14T10:39:43;101221.41;;;25.35;41.41
13068;BME280;6600;51.362;6.686;2023-06-14T10:42:10;101205.91;;;25.12;41.87
13068;BME280;6600;51.362;6.686;2023-06-14T10:44:49;101214.47;;;25.56;42.60
13068;BME280;6600;51.362;6.686;2023-06-14T10:47:25;101212.69;;;25.47;41.39
13068;BME280;6600;51.362;6.686;2023-06-14T10:49:55;101205.97;;;25.39;41.92
13068;BME280;6600;51.362;6.686;2023-06-14T10:52:23;101210.50;;;25.62;41.44
13068;BME280;6600;51.362;6.686;2023-06-14T10:55:17;101203.69;;;25.74;40.94
13068;BME280;6600;51.362;6.686;2023-06-14T10:57:48;101206.53;;;25.69;40.24
13068;BME280;6600;51.362;6.686;2023-06-14T11:00:18;101204.69;;;25.50;40.44
13068;BME280;6600;51.362;6.686;2023-06-14T11:03:12;101210.00;;;25.60;40.00
13068;BME280;6600;51.362;6.686;2023-06-14T11:05:50;101206.72;;;25.58;40.74
13068;BME280;6600;51.362;6.686;2023-06-14T11:11:13;101217.75;;;25.40;40.85
13068;BME280;6600;51.362;6.686;2023-06-14T11:13:45;101214.06;;;25.31;41.72
13068;BME280;6600;51.362;6.686;2023-06-14T11:16:15;101208.41;;;25.41;41.96
13068;BME280;6600;51.362;6.686;2023-06-14T11:18:41;101202.63;;;25.10;42.03
13068;BME280;6600;51.362;6.686;2023-06-14T11:21:07;101195.13;;;25.02;42.42
13068;BME280;6600;51.362;6.686;2023-06-14T11:23:34;101205.47;;;25.05;42.25
13068;BME280;6600;51.362;6.686;2023-06-14T11:26:00;101200.78;;;25.38;42.20
13068;BME280;6600;51.362;6.686;2023-06-14T11:28:36;101200.66;;;25.61;42.52
13068;BME280;6600;51.362;6.686;2023-06-14T11:31:03;101195.03;;;25.67;42.63
13068;BME280;6600;51.362;6.686;2023-06-14T11:33:29;101194.28;;;25.34;42.26
13068;BME280;6600;51.362;6.686;2023-06-14T11:35:54;101189.16;;;25.59;42.42
13068;BME280;6600;51.362;6.686;2023-06-14T11:41:58;101204.00;;;25.99;40.45
13068;BME280;6600;51.362;6.686;2023-06-14T11:44:36;101198.31;;;25.96;41.53
13068;BME280;6600;51.362;6.686;2023-06-14T11:47:03;101194.19;;;26.07;41.46
13068;BME280;6600;51.362;6.686;2023-06-14T11:49:28;101210.69;;;25.93;42.03
13068;BME280;6600;51.362;6.686;2023-06-14T11:51:54;101207.75;;;25.90;42.19
13068;BME280;6600;51.362;6.686;2023-06-14T11:54:19;101206.34;;;25.79;40.94
13068;BME280;6600;51.362;6.686;2023-06-14T11:56:45;101206.03;;;25.80;42.87
13068;BME280;6600;51.362;6.686;2023-06-14T11:59:13;101205.00;;;25.90;42.09
13068;BME280;6600;51.362;6.686;2023-06-14T12:01:38;101197.91;;;25.75;42.16
13068;BME280;6600;51.362;6.686;2023-06-14T12:04:04;101189.97;;;25.74;42.64
13068;BME280;6600;51.362;6.686;2023-06-14T12:06:30;101197.28;;;25.65;41.89
13068;BME280;6600;51.362;6.686;2023-06-14T12:09:03;101206.84;;;25.81;41.17
13068;BME280;6600;51.362;6.686;2023-06-14T12:11:33;101195.84;;;26.08;41.95
13068;BME280;6600;51.362;6.686;2023-06-14T12:13:59;101187.59;;;26.08;41.12
13068;BME280;6600;51.362;6.686;2023-06-14T12:16:31;101192.63;;;25.79;43.11
13068;BME280;6600;51.362;6.686;2023-06-14T12:19:00;101185.66;;;25.40;44.29
13068;BME280;6600;51.362;6.686;2023-06-14T12:21:26;101190.38;;;25.67;43.38
13068;BME280;6600;51.362;6.686;2023-06-14T12:23:53;101189.53;;;25.94;42.53
13068;BME280;6600;51.362;6.686;2023-06-14T12:26:19;101196.75;;;26.17;41.92
13068;BME280;6600;51.362;6.686;2023-06-14T12:28:46;101201.47;;;26.03;41.35
13068;BME280;6600;51.362;6.686;2023-06-14T12:31:13;101204.38;;;25.93;42.08
13068;BME280;6600;51.362;6.686;2023-06-14T12:33:40;101197.69;;;25.99;42.80
13068;BME280;6600;51.362;6.686;2023-06-14T12:36:09;101199.81;;;26.02;41.74
13068;BME280;6600;51.362;6.686;2023-06-14T12:38:36;101197.50;;;25.82;42.20
13068;BME280;6600;51.362;6.686;2023-06-14T12:41:02;101195.53;;;26.09;43.37
13068;BME280;6600;51.362;6.686;2023-06-14T12:43:28;101188.94;;;25.97;41.88
13068;BME280;6600;51.362;6.686;2023-06-14T12:45:53;101197.34;;;26.28;43.21
13068;BME280;6600;51.362;6.686;2023-06-14T12:48:19;101189.03;;;26.19;42.26
13068;BME280;6600;51.362;6.686;2023-06-14T12:50:44;101196.44;;;26.32;42.67
13068;BME280;6600;51.362;6.686;2023-06-14T12:53:10;101190.34;;;26.22;42.54
13068;BME280;6600;51.362;6.686;2023-06-14T12:55:36;101190.78;;;25.88;42.93
13068;BME280;6600;51.362;6.686;2023-06-14T12:58:01;101189.34;;;25.77;44.27
13068;BME280;6600;51.362;6.686;2023-06-14T13:00:26;101185.09;;;25.71;44.51
13068;BME280;6600;51.362;6.686;2023-06-14T13:02:52;101190.34;;;26.08;44.01
13068;BME280;6600;51.362;6.686;2023-06-14T13:05:18;101196.75;;;26.17;41.69
13068;BME280;6600;51.362;6.686;2023-06-14T13:07:43;101191.75;;;26.33;41.42
13068;BME280;6600;51.362;6.686;2023-06-14T13:10:10;101190.22;;;26.62;42.44
13068;BME280;6600;51.362;6.686;2023-06-14T13:12:35;101190.22;;;26.62;40.27
13068;BME280;6600;51.362;6.686;2023-06-14T13:15:01;101190.00;;;26.73;42.56
13068;BME280;6600;51.362;6.686;2023-06-14T13:17:26;101180.88;;;26.63;42.37